createdAt,value
2023-04-18T00:01:50.936Z,99747.31
2023-04-18T00:04:18.936Z,99735.59
2023-04-18T00:06:50.162Z,99648.91
2023-04-18T00:09:17.071Z,99757.16
2023-04-18T00:11:44.000Z,99723.66
2023-04-18T00:14:10.918Z,99716.75
2023-04-18T00:16:38.873Z,99731.72
2023-04-18T00:19:05.995Z,99751.75
2023-04-18T00:21:33.341Z,99748.91
2023-04-18T00:24:00.140Z,99752.09
2023-04-18T00:26:27.919Z,99700.81
2023-04-18T00:28:54.840Z,99718.13
2023-04-18T00:31:21.740Z,99700.91
2023-04-18T00:33:48.698Z,99701.66
2023-04-18T00:36:15.738Z,99709.88
2023-04-18T00:38:42.563Z,99691.19
2023-04-18T00:41:09.308Z,99617.53
2023-04-18T00:43:37.431Z,99671.84
2023-04-18T00:46:04.304Z,99612.59
2023-04-18T00:48:31.110Z,99726.25
2023-04-18T00:50:58.254Z,99711.06
2023-04-18T00:53:24.962Z,99657.38
2023-04-18T00:55:51.786Z,99719.00
2023-04-18T00:58:18.644Z,99699.25
2023-04-18T01:00:45.875Z,99714.00
2023-04-18T01:03:14.667Z,99732.56
2023-04-18T01:05:41.800Z,99712.72
2023-04-18T01:08:08.595Z,99716.75
2023-04-18T01:10:35.956Z,99697.38
2023-04-18T01:13:15.302Z,99669.47
2023-04-18T01:15:46.585Z,99689.00
2023-04-18T01:18:13.626Z,99684.38
2023-04-18T01:20:44.065Z,99692.97
2023-04-18T01:23:10.863Z,99694.03
2023-04-18T01:25:37.866Z,99696.44
2023-04-18T01:28:05.054Z,99678.78
2023-04-18T01:30:32.505Z,99626.25
2023-04-18T01:33:01.453Z,99684.56
2023-04-18T01:35:28.637Z,99687.75
2023-04-18T01:37:55.671Z,99690.13
2023-04-18T01:40:22.655Z,99666.19
2023-04-18T01:42:49.405Z,99645.28
2023-04-18T01:45:16.388Z,99687.69
2023-04-18T01:47:43.884Z,99689.69
2023-04-18T01:50:10.995Z,99647.81
2023-04-18T01:52:37.740Z,99696.28
2023-04-18T01:55:06.278Z,99634.56
2023-04-18T01:57:34.088Z,99680.63
2023-04-18T02:00:00.890Z,99635.84
2023-04-18T02:02:27.893Z,99681.72
2023-04-18T02:04:54.768Z,99669.38
2023-04-18T02:07:21.702Z,99683.34
2023-04-18T02:09:48.531Z,99673.47
2023-04-18T02:12:15.321Z,99673.22
2023-04-18T02:14:42.112Z,99677.78
2023-04-18T02:17:08.957Z,99642.78
2023-04-18T02:19:35.874Z,99657.56
2023-04-18T02:22:02.650Z,99675.59
2023-04-18T02:24:29.557Z,99676.25
2023-04-18T02:26:56.298Z,99677.16
2023-04-18T02:29:23.198Z,99675.53
2023-04-18T02:31:50.184Z,99642.22
2023-04-18T02:34:16.954Z,99672.22
2023-04-18T02:36:43.722Z,99586.00
2023-04-18T02:39:10.592Z,99639.59
2023-04-18T02:41:39.374Z,99647.34
2023-04-18T02:44:07.272Z,99661.34
2023-04-18T02:46:34.253Z,99659.41
2023-04-18T02:49:01.055Z,99606.59
2023-04-18T02:51:28.159Z,99650.75
2023-04-18T02:53:56.081Z,99663.34
2023-04-18T02:56:22.991Z,99561.44
2023-04-18T02:58:50.037Z,99585.22
2023-04-18T03:01:17.726Z,99622.69
2023-04-18T03:03:44.939Z,99657.56
2023-04-18T03:06:11.673Z,99655.75
2023-04-18T03:08:39.015Z,99664.53
2023-04-18T03:11:05.737Z,99674.31
2023-04-18T03:13:33.134Z,99660.16
2023-04-18T03:16:00.257Z,99670.28
2023-04-18T03:18:27.009Z,99676.44
2023-04-18T03:20:53.748Z,99670.75
2023-04-18T03:23:20.684Z,99664.63
2023-04-18T03:25:47.468Z,99671.91
2023-04-18T03:28:14.190Z,99653.22
2023-04-18T03:30:41.121Z,99652.38
2023-04-18T03:33:08.701Z,99574.38
2023-04-18T03:35:35.461Z,99653.41
2023-04-18T03:38:02.310Z,99657.31
2023-04-18T03:40:29.105Z,99659.06
2023-04-18T03:42:55.816Z,99668.75
2023-04-18T03:45:22.736Z,99636.84
2023-04-18T03:47:50.273Z,99675.13
2023-04-18T03:50:17.133Z,99674.22
2023-04-18T03:52:43.914Z,99673.78
2023-04-18T03:55:11.508Z,99570.00
2023-04-18T03:57:38.871Z,99683.09
2023-04-18T04:00:08.402Z,99650.47
2023-04-18T04:02:35.300Z,99654.22
2023-04-18T04:05:02.816Z,99668.84
2023-04-18T04:07:29.738Z,99613.00
2023-04-18T04:09:56.541Z,99667.47
2023-04-18T04:12:23.325Z,99657.34
2023-04-18T04:14:50.165Z,99659.03
2023-04-18T04:17:16.895Z,99631.16
2023-04-18T04:19:43.625Z,99670.56
2023-04-18T04:22:10.793Z,99643.63
2023-04-18T04:24:40.392Z,99676.13
2023-04-18T04:27:07.121Z,99650.19
2023-04-18T04:29:35.458Z,99657.94
2023-04-18T04:32:02.327Z,99671.94
2023-04-18T04:34:29.139Z,99663.78
2023-04-18T04:36:55.985Z,99668.91
2023-04-18T04:39:22.721Z,99662.41
2023-04-18T04:41:49.551Z,99650.31
2023-04-18T04:44:17.973Z,99648.97
2023-04-18T04:46:45.020Z,99653.88
2023-04-18T04:49:12.153Z,99654.94
2023-04-18T04:51:39.967Z,99670.50
2023-04-18T04:54:56.435Z,99648.94
2023-04-18T04:57:23.271Z,99669.47
2023-04-18T04:59:49.987Z,99646.25
2023-04-18T05:02:16.986Z,99667.66
2023-04-18T05:04:44.566Z,99654.75
2023-04-18T05:07:11.298Z,99655.47
2023-04-18T05:09:38.750Z,99638.81
2023-04-18T05:12:05.845Z,99650.09
2023-04-18T05:14:32.662Z,99656.84
2023-04-18T05:16:59.428Z,99626.84
2023-04-18T05:19:26.347Z,99654.25
2023-04-18T05:21:53.158Z,99616.88
2023-04-18T05:24:19.899Z,99656.63
2023-04-18T05:26:46.833Z,99665.47
2023-04-18T05:29:13.687Z,99675.97
2023-04-18T05:31:40.430Z,99658.91
2023-04-18T05:34:07.233Z,99657.69
2023-04-18T05:36:34.030Z,99622.56
2023-04-18T05:39:00.754Z,99666.09
2023-04-18T05:41:27.568Z,99650.66
2023-04-18T05:44:04.269Z,99568.47
2023-04-18T05:46:32.186Z,99649.03
2023-04-18T05:48:59.156Z,99587.13
2023-04-18T05:51:26.865Z,99617.06
2023-04-18T05:53:53.762Z,99656.28
2023-04-18T05:56:20.826Z,99632.13
2023-04-18T05:58:47.977Z,99653.78
2023-04-18T06:01:14.919Z,99640.81
2023-04-18T06:03:42.525Z,99623.44
2023-04-18T06:06:09.692Z,99665.91
2023-04-18T06:08:38.435Z,99648.13
2023-04-18T06:11:05.235Z,99660.63
2023-04-18T06:13:32.226Z,99632.75
2023-04-18T06:15:59.173Z,99641.09
2023-04-18T06:18:25.934Z,99650.63
2023-04-18T06:20:52.959Z,99638.28
2023-04-18T06:23:19.763Z,99670.41
2023-04-18T06:25:46.474Z,99661.34
2023-04-18T06:28:13.216Z,99631.91
2023-04-18T06:30:40.157Z,99644.16
2023-04-18T06:33:10.488Z,99671.44
2023-04-18T06:35:37.421Z,99678.03
2023-04-18T06:38:04.378Z,99665.75
2023-04-18T06:40:31.221Z,99681.75
2023-04-18T06:42:57.961Z,99629.00
2023-04-18T06:45:24.837Z,99653.78
2023-04-18T06:47:52.631Z,99683.97
2023-04-18T06:50:19.397Z,99673.78
2023-04-18T06:52:46.336Z,99661.50
2023-04-18T06:55:14.559Z,99672.09
2023-04-18T06:57:41.806Z,99655.09
2023-04-18T07:00:10.357Z,99666.19
2023-04-18T07:02:37.991Z,99676.22
2023-04-18T07:05:05.451Z,99660.91
2023-04-18T07:07:33.214Z,99700.38
2023-04-18T07:10:00.036Z,99653.50
2023-04-18T07:12:27.384Z,99698.00
2023-04-18T07:14:54.781Z,99683.78
2023-04-18T07:17:21.572Z,99682.88
2023-04-18T07:19:48.506Z,99685.94
2023-04-18T07:22:15.431Z,99685.06
2023-04-18T07:24:42.484Z,99698.31
2023-04-18T07:27:09.685Z,99671.25
2023-04-18T07:29:36.714Z,99680.50
2023-04-18T07:32:03.570Z,99661.69
2023-04-18T07:34:30.588Z,99705.13
2023-04-18T07:36:57.824Z,99674.84
2023-04-18T07:39:24.549Z,99692.91
2023-04-18T07:41:51.314Z,99650.78
2023-04-18T07:44:18.723Z,99696.53
2023-04-18T07:46:46.393Z,99676.47
2023-04-18T07:49:16.044Z,99667.81
2023-04-18T07:51:43.214Z,99661.47
2023-04-18T07:54:11.303Z,99646.69
2023-04-18T07:56:38.216Z,99674.28
2023-04-18T07:59:05.133Z,99680.44
2023-04-18T08:01:31.865Z,99675.44
2023-04-18T08:04:01.813Z,99686.19
2023-04-18T08:06:29.308Z,99676.09
2023-04-18T08:08:56.166Z,99674.06
2023-04-18T08:11:23.057Z,99661.94
2023-04-18T08:13:50.032Z,99645.38
2023-04-18T08:16:17.473Z,99674.38
2023-04-18T08:18:44.550Z,99591.13
2023-04-18T08:21:11.618Z,99670.63
2023-04-18T08:23:38.579Z,99660.19
2023-04-18T08:26:05.548Z,99671.56
2023-04-18T08:28:32.451Z,99678.63
2023-04-18T08:30:59.237Z,99651.28
2023-04-18T08:33:26.494Z,99677.84
2023-04-18T08:35:53.442Z,99679.97
2023-04-18T08:38:20.238Z,99675.09
2023-04-18T08:40:47.284Z,99656.84
2023-04-18T08:43:15.206Z,99661.47
2023-04-18T08:45:43.192Z,99675.41
2023-04-18T08:48:16.843Z,99673.41
2023-04-18T08:50:43.919Z,99652.81
2023-04-18T08:53:11.117Z,99663.91
2023-04-18T08:55:38.296Z,99677.38
2023-04-18T08:58:07.058Z,99682.75
2023-04-18T09:00:34.325Z,99675.50
2023-04-18T09:03:03.792Z,99689.09
2023-04-18T09:05:31.056Z,99678.78
2023-04-18T09:07:57.865Z,99678.53
2023-04-18T09:10:32.867Z,99667.69
2023-04-18T09:13:01.154Z,99669.88
2023-04-18T09:15:29.345Z,99668.59
2023-04-18T09:17:58.139Z,99670.38
2023-04-18T09:20:38.063Z,99653.75
2023-04-18T09:23:06.366Z,99678.03
2023-04-18T09:25:43.304Z,99685.47
2023-04-18T09:28:28.137Z,99681.56
2023-04-18T09:31:11.986Z,99669.38
2023-04-18T09:33:41.487Z,99673.47
2023-04-18T09:36:21.104Z,99683.38
2023-04-18T09:38:48.698Z,99657.66
2023-04-18T09:41:21.210Z,99672.09
2023-04-18T09:43:48.541Z,99685.31
2023-04-18T09:46:17.696Z,99628.16
2023-04-18T09:48:44.811Z,99694.59
2023-04-18T09:51:16.151Z,99686.47
2023-04-18T09:53:47.825Z,99649.63
2023-04-18T09:56:27.682Z,99674.28
2023-04-18T09:59:02.648Z,99668.56
2023-04-18T10:01:29.989Z,99675.56
2023-04-18T10:03:56.884Z,99680.03
2023-04-18T10:06:23.654Z,99680.00
2023-04-18T10:08:50.547Z,99660.31
2023-04-18T10:11:18.656Z,99674.25
2023-04-18T10:13:47.859Z,99677.16
2023-04-18T10:16:14.826Z,99646.06
2023-04-18T10:18:42.315Z,99682.47
2023-04-18T10:21:09.332Z,99681.31
2023-04-18T10:23:39.825Z,99679.31
2023-04-18T10:26:07.686Z,99673.59
2023-04-18T10:28:57.426Z,99674.44
2023-04-18T10:31:28.412Z,99672.78
2023-04-18T10:34:17.863Z,99672.78
2023-04-18T10:37:04.403Z,99678.50
2023-04-18T10:39:31.336Z,99676.81
2023-04-18T10:41:58.136Z,99675.59
2023-04-18T10:44:25.040Z,99688.69
2023-04-18T10:46:51.968Z,99691.06
2023-04-18T10:49:23.352Z,99688.88
2023-04-18T10:51:56.279Z,99670.34
2023-04-18T10:54:42.200Z,99676.28
2023-04-18T10:57:10.364Z,99662.19
2023-04-18T10:59:41.949Z,99641.59
2023-04-18T11:02:21.307Z,99643.41
2023-04-18T11:04:52.042Z,99660.59
2023-04-18T11:07:18.933Z,99678.38
2023-04-18T11:09:55.132Z,99650.53
2023-04-18T11:12:22.509Z,99654.38
2023-04-18T11:14:50.407Z,99671.47
2023-04-18T11:17:22.264Z,99657.22
2023-04-18T11:19:49.877Z,99663.97
2023-04-18T11:22:17.152Z,99657.72
2023-04-18T11:24:44.964Z,99644.91
2023-04-18T11:27:12.422Z,99652.47
2023-04-18T11:29:39.223Z,99647.44
2023-04-18T11:32:07.448Z,99651.34
2023-04-18T11:34:34.325Z,99644.72
2023-04-18T11:37:01.204Z,99646.78
2023-04-18T11:39:28.280Z,99645.66
2023-04-18T11:41:57.204Z,99630.69
2023-04-18T11:44:24.756Z,99647.28
2023-04-18T11:46:52.310Z,99650.47
2023-04-18T11:49:29.024Z,99621.72
2023-04-18T11:51:56.162Z,99647.22
2023-04-18T11:54:42.708Z,99623.97
2023-04-18T11:57:26.450Z,99615.59
2023-04-18T11:59:57.763Z,99623.69
2023-04-18T12:02:39.251Z,99626.91
2023-04-18T12:05:06.671Z,99626.31
2023-04-18T12:07:37.947Z,99621.72
2023-04-18T12:10:07.185Z,99607.00
2023-04-18T12:12:34.048Z,99616.59
2023-04-18T12:15:06.632Z,99594.28
2023-04-18T12:17:33.700Z,99606.22
2023-04-18T12:20:10.155Z,99596.53
2023-04-18T12:22:42.086Z,99595.38
2023-04-18T12:25:27.305Z,99595.66
2023-04-18T12:27:57.413Z,99603.09
2023-04-18T12:30:31.213Z,99592.09
2023-04-18T12:32:59.619Z,99600.00
2023-04-18T12:35:26.609Z,99567.31
2023-04-18T12:37:54.809Z,99596.13
2023-04-18T12:40:23.138Z,99589.31
2023-04-18T12:42:50.738Z,99571.69
2023-04-18T12:45:18.199Z,99588.53
2023-04-18T12:47:46.433Z,99566.16
2023-04-18T12:50:23.887Z,99573.97
2023-04-18T12:52:52.464Z,99571.22
2023-04-18T12:55:19.363Z,99577.78
2023-04-18T12:57:46.151Z,99587.22
2023-04-18T13:00:14.181Z,99569.28
2023-04-18T13:02:41.688Z,99570.28
2023-04-18T13:05:09.662Z,99568.28
2023-04-18T13:07:40.753Z,99570.28
2023-04-18T13:10:08.994Z,99540.91
2023-04-18T13:12:36.002Z,99556.09
2023-04-18T13:15:03.898Z,99563.03
2023-04-18T13:17:30.859Z,99544.31
2023-04-18T13:19:57.623Z,99511.09
2023-04-18T13:22:24.819Z,99557.69
2023-04-18T13:24:58.931Z,99555.28
2023-04-18T13:27:25.836Z,99551.44
2023-04-18T13:29:52.907Z,99545.22
2023-04-18T13:32:19.818Z,99557.63
2023-04-18T13:34:47.050Z,99549.81
2023-04-18T13:37:16.988Z,99543.19
2023-04-18T13:39:43.869Z,99521.13
2023-04-18T13:42:10.648Z,99561.47
2023-04-18T13:44:37.817Z,99538.59
2023-04-18T13:47:05.950Z,99510.34
2023-04-18T13:49:33.463Z,99513.00
2023-04-18T13:52:00.981Z,99545.03
2023-04-18T13:54:28.700Z,99502.06
2023-04-18T13:56:57.325Z,99524.56
2023-04-18T13:59:27.620Z,99537.38
2023-04-18T14:01:54.751Z,99526.91
2023-04-18T14:04:22.517Z,99533.50
2023-04-18T14:06:49.816Z,99540.50
2023-04-18T14:09:17.342Z,99542.22
2023-04-18T14:11:44.617Z,99537.38
2023-04-18T14:14:11.330Z,99541.56
2023-04-18T14:16:38.195Z,99503.22
2023-04-18T14:19:04.965Z,99527.75
2023-04-18T14:21:31.766Z,99536.34
2023-04-18T14:23:58.642Z,99542.13
2023-04-18T14:26:25.673Z,99541.38
2023-04-18T14:28:52.501Z,99540.16
2023-04-18T14:31:19.429Z,99541.00
2023-04-18T14:33:46.447Z,99538.59
2023-04-18T14:36:15.048Z,99536.97
2023-04-18T14:38:42.360Z,99537.38
2023-04-18T14:41:09.095Z,99541.09
2023-04-18T14:43:36.022Z,99526.38
2023-04-18T14:46:02.881Z,99491.28
2023-04-18T14:48:30.113Z,99524.75
2023-04-18T14:50:57.860Z,99523.97
2023-04-18T14:53:25.251Z,99521.53
2023-04-18T14:55:52.350Z,99524.78
2023-04-18T14:58:19.121Z,99528.91
2023-04-18T15:00:45.953Z,99524.41
2023-04-18T15:03:12.886Z,99484.00
2023-04-18T15:05:43.059Z,99481.50
2023-04-18T15:08:11.591Z,99523.19
2023-04-18T15:10:40.170Z,99512.16
2023-04-18T15:13:06.910Z,99507.22
2023-04-18T15:15:38.031Z,99517.88
2023-04-18T15:18:04.940Z,99506.88
2023-04-18T15:20:31.804Z,99512.16
2023-04-18T15:22:58.678Z,99512.56
2023-04-18T15:25:26.206Z,99501.94
2023-04-18T15:27:53.051Z,99510.09
2023-04-18T15:30:20.246Z,99492.56
2023-04-18T15:32:48.552Z,99485.59
2023-04-18T15:35:15.453Z,99480.69
2023-04-18T15:37:42.354Z,99489.69
2023-04-18T15:40:11.332Z,99472.94
2023-04-18T15:42:39.132Z,99486.00
2023-04-18T15:45:06.830Z,99463.56
2023-04-18T15:47:34.547Z,99448.84
2023-04-18T15:50:01.403Z,99483.94
2023-04-18T15:52:28.301Z,99496.22
2023-04-18T15:54:57.346Z,99427.59
2023-04-18T15:57:24.333Z,99457.84
2023-04-18T15:59:51.235Z,99480.69
2023-04-18T16:02:18.154Z,99483.13
2023-04-18T16:04:45.206Z,99481.91
2023-04-18T16:07:12.237Z,99471.31
2023-04-18T16:09:39.031Z,99467.22
2023-04-18T16:12:07.338Z,99459.44
2023-04-18T16:14:34.287Z,99482.31
2023-04-18T16:17:01.086Z,99478.63
2023-04-18T16:19:27.901Z,99457.78
2023-04-18T16:21:54.791Z,99473.31
2023-04-18T16:24:21.512Z,99475.78
2023-04-18T16:26:48.393Z,99471.28
2023-04-18T16:29:15.260Z,99459.84
2023-04-18T16:31:43.269Z,99471.69
2023-04-18T16:34:10.051Z,99465.97
2023-04-18T16:36:36.924Z,99463.53
2023-04-18T16:39:04.783Z,99470.88
2023-04-18T16:41:31.749Z,99468.41
2023-04-18T16:43:58.625Z,99447.97
2023-04-18T16:46:25.685Z,99470.41
2023-04-18T16:48:52.743Z,99461.84
2023-04-18T16:51:19.688Z,99463.47
2023-04-18T16:53:46.918Z,99470.81
2023-04-18T16:56:13.702Z,99471.63
2023-04-18T16:58:41.094Z,99461.00
2023-04-18T17:01:10.546Z,99461.00
2023-04-18T17:03:37.638Z,99464.25
2023-04-18T17:06:04.954Z,99465.91
2023-04-18T17:08:33.789Z,99456.88
2023-04-18T17:11:02.295Z,99469.13
2023-04-18T17:13:31.758Z,99468.31
2023-04-18T17:15:58.478Z,99466.69
2023-04-18T17:18:25.290Z,99424.16
2023-04-18T17:20:52.538Z,99444.53
2023-04-18T17:23:19.388Z,99450.66
2023-04-18T17:25:46.364Z,99469.41
2023-04-18T17:28:14.168Z,99471.47
2023-04-18T17:30:44.398Z,99439.53
2023-04-18T17:33:11.434Z,99477.56
2023-04-18T17:35:41.500Z,99450.13
2023-04-18T17:38:09.177Z,99468.91
2023-04-18T17:40:36.011Z,99432.91
2023-04-18T17:43:02.911Z,99459.84
2023-04-18T17:45:30.058Z,99479.44
2023-04-18T17:47:58.420Z,99481.03
2023-04-18T17:50:25.375Z,99461.78
2023-04-18T17:52:52.133Z,99477.28
2023-04-18T17:55:19.130Z,99483.38
2023-04-18T17:57:46.527Z,99478.44
2023-04-18T18:00:14.715Z,99478.00
2023-04-18T18:02:42.817Z,99425.97
2023-04-18T18:05:13.358Z,99477.91
2023-04-18T18:07:43.085Z,99471.66
2023-04-18T18:10:11.470Z,99461.38
2023-04-18T18:12:40.048Z,99492.81
2023-04-18T18:15:08.331Z,99457.56
2023-04-18T18:17:35.328Z,99486.13
2023-04-18T18:20:02.134Z,99486.53
2023-04-18T18:22:28.940Z,99498.75
2023-04-18T18:24:56.767Z,99492.94
2023-04-18T18:27:23.641Z,99495.31
2023-04-18T18:29:50.533Z,99490.81
2023-04-18T18:32:17.493Z,99465.28
2023-04-18T18:34:44.265Z,99447.28
2023-04-18T18:37:11.054Z,99508.69
2023-04-18T18:39:38.017Z,99509.47
2023-04-18T18:42:04.823Z,99503.69
2023-04-18T18:44:32.641Z,99511.34
2023-04-18T18:46:59.981Z,99486.22
2023-04-18T18:49:26.962Z,99510.38
2023-04-18T18:51:53.782Z,99513.97
2023-04-18T18:54:20.604Z,99517.53
2023-04-18T18:56:47.430Z,99519.44
2023-04-18T18:59:15.908Z,99519.75
2023-04-18T19:01:43.045Z,99507.03
2023-04-18T19:04:10.149Z,99493.75
2023-04-18T19:06:37.209Z,99426.34
2023-04-18T19:09:05.411Z,99503.22
2023-04-18T19:11:32.315Z,99486.69
2023-04-18T19:13:59.170Z,99524.34
2023-04-18T19:16:26.281Z,99531.09
2023-04-18T19:18:53.149Z,99503.13
2023-04-18T19:21:20.434Z,99444.31
2023-04-18T19:23:47.358Z,99537.56
2023-04-18T19:26:14.191Z,99538.31
2023-04-18T19:28:41.613Z,99532.50
2023-04-18T19:31:09.725Z,99536.41
2023-04-18T19:33:36.499Z,99524.50
2023-04-18T19:36:03.486Z,99522.25
2023-04-18T19:38:30.484Z,99544.28
2023-04-18T19:40:57.353Z,99510.53
2023-04-18T19:43:24.111Z,99542.13
2023-04-18T19:45:52.623Z,99552.16
2023-04-18T19:48:21.580Z,99557.69
2023-04-18T19:50:49.694Z,99552.38
2023-04-18T19:53:19.096Z,99549.78
2023-04-18T19:55:47.517Z,99554.25
2023-04-18T19:58:49.144Z,99546.88
2023-04-18T20:01:17.229Z,99563.47
2023-04-18T20:03:44.313Z,99562.94
2023-04-18T20:06:11.421Z,99552.97
2023-04-18T20:08:39.636Z,99558.78
2023-04-18T20:11:10.754Z,99549.72
2023-04-18T20:13:37.902Z,99511.06
2023-04-18T20:16:05.481Z,99558.72
2023-04-18T20:18:32.576Z,99566.31
2023-04-18T20:20:59.365Z,99558.47
2023-04-18T20:23:26.365Z,99538.78
2023-04-18T20:25:53.551Z,99470.94
2023-04-18T20:28:20.608Z,99571.53
2023-04-18T20:30:48.133Z,99552.81
2023-04-18T20:33:14.991Z,99577.97
2023-04-18T20:35:41.919Z,99592.50
2023-04-18T20:38:11.189Z,99593.28
2023-04-18T20:40:43.061Z,99585.50
2023-04-18T20:43:10.141Z,99598.03
2023-04-18T20:45:42.903Z,99589.91
2023-04-18T20:48:10.331Z,99593.09
2023-04-18T20:50:37.228Z,99587.88
2023-04-18T20:53:04.143Z,99596.31
2023-04-18T20:55:31.188Z,99557.38
2023-04-18T20:57:58.756Z,99489.72
2023-04-18T21:00:25.977Z,99572.00
2023-04-18T21:02:52.960Z,99541.25
2023-04-18T21:05:20.275Z,99567.53
2023-04-18T21:07:47.115Z,99594.16
2023-04-18T21:10:13.942Z,99585.44
2023-04-18T21:12:40.663Z,99566.44
2023-04-18T21:15:08.080Z,99591.13
2023-04-18T21:17:34.981Z,99591.03
2023-04-18T21:20:01.807Z,99585.66
2023-04-18T21:22:28.592Z,99563.38
2023-04-18T21:24:55.455Z,99599.81
2023-04-18T21:27:22.818Z,99587.66
2023-04-18T21:29:50.382Z,99572.69
2023-04-18T21:32:17.382Z,99560.94
2023-04-18T21:34:44.336Z,99596.63
2023-04-18T21:37:11.127Z,99594.16
2023-04-18T21:39:38.466Z,99572.69
2023-04-18T21:42:05.378Z,99564.34
2023-04-18T21:44:32.278Z,99597.22
2023-04-18T21:46:59.274Z,99507.72
2023-04-18T21:49:26.006Z,99548.78
2023-04-18T21:51:52.769Z,99564.03
2023-04-18T21:54:20.347Z,99582.94
2023-04-18T21:56:47.127Z,99590.19
2023-04-18T21:59:13.844Z,99583.59
2023-04-18T22:01:40.857Z,99551.94
2023-04-18T22:04:07.932Z,99513.66
2023-04-18T22:06:34.856Z,99570.19
2023-04-18T22:09:02.287Z,99580.88
2023-04-18T22:11:29.129Z,99592.50
2023-04-18T22:13:58.185Z,99546.03
2023-04-18T22:16:25.291Z,99521.22
2023-04-18T22:18:52.216Z,99573.78
2023-04-18T22:21:18.968Z,99533.75
2023-04-18T22:23:45.955Z,99461.53
2023-04-18T22:26:12.852Z,99575.63
2023-04-18T22:28:39.645Z,99554.84
2023-04-18T22:31:06.746Z,99542.88
2023-04-18T22:33:33.505Z,99580.34
2023-04-18T22:36:00.902Z,99583.56
2023-04-18T22:38:27.863Z,99591.59
2023-04-18T22:40:54.608Z,99553.38
2023-04-18T22:43:23.759Z,99588.56
2023-04-18T22:45:51.263Z,99584.81
2023-04-18T22:48:18.352Z,99550.09
2023-04-18T22:50:46.433Z,99545.88
2023-04-18T22:53:14.428Z,99590.09
2023-04-18T22:55:41.888Z,99578.41
2023-04-18T22:58:09.350Z,99589.72
2023-04-18T23:00:36.495Z,99587.53
2023-04-18T23:03:03.452Z,99566.28
2023-04-18T23:05:30.541Z,99593.22
2023-04-18T23:07:59.585Z,99552.00
2023-04-18T23:10:27.153Z,99542.13
2023-04-18T23:12:53.923Z,99521.69
2023-04-18T23:15:25.626Z,99589.63
2023-04-18T23:18:01.737Z,99549.91
2023-04-18T23:20:28.678Z,99589.91
2023-04-18T23:22:56.109Z,99550.38
2023-04-18T23:25:22.936Z,99589.22
2023-04-18T23:27:49.854Z,99554.63
2023-04-18T23:30:17.292Z,99546.28
2023-04-18T23:32:44.134Z,99566.31
2023-04-18T23:35:11.465Z,99557.94
2023-04-18T23:37:38.276Z,99543.13
2023-04-18T23:40:07.014Z,99545.56
2023-04-18T23:42:37.172Z,99561.31
2023-04-18T23:45:05.807Z,99545.69
2023-04-18T23:47:32.696Z,99537.56
2023-04-18T23:49:59.532Z,99558.16
2023-04-18T23:52:26.349Z,99591.53
2023-04-18T23:54:53.232Z,99496.06
2023-04-18T23:57:19.934Z,99591.81
2023-04-18T23:59:46.771Z,99543.56
